Time;durP1;ratioP1;P1;durP2;ratioP2;P2;SDS_P1;SDS_P2;PMS_P1;PMS_P2;Temp;Humidity;BMP_temperature;BMP_pressure;BME280_temperature;BME280_humidity;BME280_pressure;Samples;Min_cycle;Max_cycle;Signal;HPM_P1;HPM_P2
2021/12/27 00:02:01;;;;;;;31.08;16.67;;;;;;;-1.57;57.29;97224.63;12843003;23;20039;-83
2021/12/27 00:07:54;;;;;;;29.88;17.35;;;;;;;-1.48;57.08;97215.25;12888012;23;20016;-82
2021/12/27 00:13:23;;;;;;;30.70;16.08;;;;;;;-1.46;57.63;97216.19;12855899;23;20020;-82
2021/12/27 00:18:52;;;;;;;31.08;16.52;;;;;;;-1.46;57.35;97220.94;12896941;23;20011;-83
2021/12/27 00:24:19;;;;;;;30.48;15.82;;;;;;;-1.47;57.58;97211.97;12877432;23;20069;-83
2021/12/27 00:30:04;;;;;;;29.20;16.05;;;;;;;-1.40;57.75;97205.16;12854090;23;20027;-82
2021/12/27 00:35:41;;;;;;;28.25;14.88;;;;;;;-1.27;57.98;97204.41;12879892;23;20016;-82
2021/12/27 00:41:21;;;;;;;31.05;15.63;;;;;;;-1.27;58.62;97198.91;12899742;23;20024;-84
2021/12/27 00:46:53;;;;;;;;;;;;;;;-1.23;58.59;97202.09;12831372;23;20020;-83
2021/12/27 00:52:18;;;;;;;28.30;14.75;;;;;;;-1.18;58.69;97193.00;12850016;23;19916;-83
2021/12/27 00:57:45;;;;;;;26.02;14.80;;;;;;;-1.21;58.60;97194.81;12836688;23;20005;-83
2021/12/27 01:03:13;;;;;;;29.55;15.50;;;;;;;-1.21;58.94;97194.06;12849607;23;20020;-83
2021/12/27 01:08:53;;;;;;;27.25;15.30;;;;;;;-1.14;58.60;97193.44;12863444;23;20017;-82
2021/12/27 01:14:41;;;;;;;27.25;15.65;;;;;;;-1.19;58.98;97197.03;12860149;23;20001;-83
2021/12/27 01:20:05;;;;;;;30.98;16.08;;;;;;;-1.14;58.23;97189.97;12879589;23;20012;-83
2021/12/27 01:25:37;;;;;;;30.08;17.63;;;;;;;-1.19;59.29;97178.59;12859680;23;20024;-83
2021/12/27 01:31:18;;;;;;;31.35;16.63;;;;;;;-1.18;58.71;97180.06;12877488;23;19997;-83
2021/12/27 01:36:45;;;;;;;29.63;16.52;;;;;;;-1.25;58.81;97177.25;12833848;23;20068;-83
2021/12/27 01:42:24;;;;;;;28.88;16.70;;;;;;;-1.27;58.89;97185.22;12832125;23;20027;-83
2021/12/27 01:47:52;;;;;;;32.25;17.02;;;;;;;-1.25;59.61;97185.47;12875056;23;20047;-82
2021/12/27 01:53:23;;;;;;;28.95;16.17;;;;;;;-1.28;59.30;97191.97;12855333;23;19996;-83
2021/12/27 01:58:53;;;;;;;34.40;17.45;;;;;;;-1.31;59.58;97176.59;12836319;23;20016;-81
2021/12/27 02:04:15;;;;;;;34.60;17.60;;;;;;;-1.24;59.19;97179.44;12885890;22;20008;-83
2021/12/27 02:09:50;;;;;;;29.00;16.00;;;;;;;-1.24;59.20;97178.72;12851999;22;20028;-82
2021/12/27 02:15:12;;;;;;;32.28;17.77;;;;;;;-1.25;59.67;97180.72;12890667;23;20068;-81
2021/12/27 02:20:41;;;;;;;32.10;17.02;;;;;;;-1.33;59.32;97168.19;12623985;23;20010;-81
2021/12/27 02:26:02;;;;;;;30.13;17.50;;;;;;;-1.40;59.83;97171.56;12627644;23;20003;-83
2021/12/27 02:31:24;;;;;;;30.77;16.95;;;;;;;-1.39;60.10;97156.59;12678820;23;20009;-82
2021/12/27 02:36:48;;;;;;;32.75;16.67;;;;;;;-1.37;60.63;97151.31;12794499;23;20073;-82
2021/12/27 02:42:18;;;;;;;32.67;17.35;;;;;;;-1.33;59.97;97143.53;12774528;23;20005;-81
2021/12/27 02:47:40;;;;;;;28.52;16.20;;;;;;;-1.39;60.76;97140.19;12794790;23;20013;-82
2021/12/27 02:53:03;;;;;;;28.67;15.70;;;;;;;-1.36;60.63;97133.63;12794290;23;20009;-81
2021/12/27 02:58:25;;;;;;;29.98;16.45;;;;;;;-1.39;61.25;97134.69;12848819;22;20016;-81
2021/12/27 03:03:47;;;;;;;29.30;16.40;;;;;;;-1.50;60.92;97124.72;12823086;22;20005;-82
2021/12/27 03:09:09;;;;;;;28.60;16.38;;;;;;;-1.50;60.51;97124.72;12791398;23;20032;-82
2021/12/27 03:14:31;;;;;;;30.40;16.80;;;;;;;-1.52;61.15;97119.78;12793898;23;20025;-83
2021/12/27 03:20:06;;;;;;;31.90;16.30;;;;;;;-1.48;61.35;97128.38;12850441;23;20007;-81
2021/12/27 03:25:33;;;;;;;29.80;15.82;;;;;;;-1.39;61.61;97116.28;12904121;22;20467;-82
2021/12/27 03:31:19;;;;;;;27.90;15.95;;;;;;;-1.43;61.92;97123.34;12988772;22;20099;-83
2021/12/27 03:36:52;;;;;;;33.08;16.50;;;;;;;-1.52;62.43;97102.63;12985013;22;20022;-82
2021/12/27 03:42:22;;;;;;;29.77;16.15;;;;;;;-1.54;61.84;97103.16;12985059;22;20003;-83
2021/12/27 03:47:57;;;;;;;25.27;14.77;;;;;;;-1.43;62.39;97096.69;13025597;22;20012;-83
2021/12/27 03:53:23;;;;;;;31.77;15.93;;;;;;;-1.32;61.96;97101.22;13026126;22;20050;-84
2021/12/27 03:59:08;;;;;;;25.33;14.25;;;;;;;-1.26;62.13;97107.28;12958479;22;20026;-83
2021/12/27 04:04:50;;;;;;;29.77;15.63;;;;;;;-1.29;62.31;97111.09;12996877;22;20019;-83
2021/12/27 04:10:14;;;;;;;29.75;15.27;;;;;;;-1.25;62.02;97112.25;12979521;22;20027;-83
2021/12/27 04:15:43;;;;;;;25.77;15.77;;;;;;;-1.18;62.03;97108.09;12981628;22;20016;-82
2021/12/27 04:21:15;;;;;;;27.58;15.27;;;;;;;-1.30;62.49;97112.34;12958312;22;20016;-83
2021/12/27 04:26:46;;;;;;;28.65;15.48;;;;;;;-1.31;62.21;97105.41;12936266;22;20023;-82
2021/12/27 04:32:11;;;;;;;28.20;15.13;;;;;;;-1.35;62.45;97113.19;12977127;22;20079;-82
2021/12/27 04:37:36;;;;;;;27.98;14.85;;;;;;;-1.39;61.94;97085.41;12985833;22;20008;-82
2021/12/27 04:43:01;;;;;;;27.42;15.43;;;;;;;-1.33;62.01;97091.53;12962408;22;20008;-83
2021/12/27 04:48:27;;;;;;;26.05;14.95;;;;;;;-1.27;62.13;97100.34;12954726;22;20024;-82
2021/12/27 04:54:07;;;;;;;29.15;15.27;;;;;;;-1.41;62.49;97088.69;12917491;23;20026;-82
2021/12/27 04:59:38;;;;;;;26.70;15.30;;;;;;;-1.37;62.60;97104.78;12936136;23;20022;-83
2021/12/27 05:05:06;;;;;;;26.73;15.05;;;;;;;-1.30;62.17;97104.16;12913597;23;20023;-83
2021/12/27 05:10:39;;;;;;;27.90;14.65;;;;;;;-1.25;62.50;97098.56;12939297;23;20035;-83
2021/12/27 05:16:06;;;;;;;24.77;15.75;;;;;;;-1.29;62.46;97087.19;12916880;23;20043;-83
2021/12/27 05:21:35;;;;;;;29.23;14.73;;;;;;;-1.22;62.05;97083.06;12873346;22;20019;-82
2021/12/27 05:26:58;;;;;;;29.75;15.35;;;;;;;-1.26;62.11;97074.41;12936533;23;20020;-82
2021/12/27 05:32:24;;;;;;;24.52;14.27;;;;;;;-1.25;62.49;97078.66;12935492;23;20020;-83
2021/12/27 05:37:56;;;;;;;22.77;12.80;;;;;;;-1.21;62.22;97081.78;12938627;23;20047;-83
2021/12/27 05:43:19;;;;;;;27.60;14.35;;;;;;;-1.31;62.57;97078.03;12871911;23;20016;-82
2021/12/27 05:48:42;;;;;;;26.92;14.10;;;;;;;-1.32;62.47;97087.50;12929131;23;20027;-82
2021/12/27 05:54:19;;;;;;;26.83;14.80;;;;;;;-1.32;63.10;97084.78;12936608;23;20016;-81
2021/12/27 05:59:48;;;;;;;28.75;16.05;;;;;;;-1.27;63.75;97081.16;12937155;23;20114;-82
2021/12/27 06:05:17;;;;;;;28.90;15.63;;;;;;;-1.31;63.35;97080.78;12934639;23;20020;-83
2021/12/27 06:10:48;;;;;;;26.88;14.80;;;;;;;-1.33;63.46;97078.56;12910974;23;20016;-84
2021/12/27 06:16:20;;;;;;;24.95;14.52;;;;;;;-1.31;63.59;97069.81;12934591;23;20006;-83
2021/12/27 06:21:54;;;;;;;23.83;14.13;;;;;;;-1.39;64.60;97067.00;12933929;23;20068;-83
2021/12/27 06:27:31;;;;;;;25.90;14.07;;;;;;;-1.45;64.08;97063.63;12936238;23;20016;-80
2021/12/27 06:33:11;;;;;;;25.97;14.63;;;;;;;-1.57;64.18;97054.91;12940884;23;20016;-83
2021/12/27 06:38:47;;;;;;;28.17;15.13;;;;;;;-1.63;63.98;97051.56;12932243;23;20026;-81
2021/12/27 06:44:21;;;;;;;27.05;14.98;;;;;;;-1.58;64.70;97053.44;12918708;23;20080;-81
2021/12/27 06:50:23;;;;;;;26.75;15.13;;;;;;;-1.49;64.49;97065.97;12937627;23;20055;-82
2021/12/27 06:55:54;;;;;;;25.27;13.57;;;;;;;-1.48;64.62;97059.94;12919731;23;20031;-80
2021/12/27 07:01:20;;;;;;;24.70;14.48;;;;;;;-1.51;64.71;97069.22;12931223;23;20020;-82
2021/12/27 07:07:00;;;;;;;27.13;14.35;;;;;;;-1.41;64.54;97071.53;12960457;23;20032;-83
2021/12/27 07:12:26;;;;;;;26.65;14.95;;;;;;;-1.46;64.67;97067.63;12914405;23;20022;-83
2021/12/27 07:18:08;;;;;;;27.58;15.88;;;;;;;-1.41;64.97;97060.56;12923232;23;20024;-83
2021/12/27 07:23:44;;;;;;;30.38;16.52;;;;;;;-1.45;64.87;97066.34;12905165;23;20024;-84
2021/12/27 07:29:15;;;;;;;25.40;14.68;;;;;;;-1.38;64.44;97062.25;12917870;23;20024;-82
2021/12/27 07:34:40;;;;;;;24.80;15.45;;;;;;;-1.14;65.14;97056.50;12937816;23;20095;-82
2021/12/27 07:40:04;;;;;;;26.00;15.95;;;;;;;-0.74;64.67;97054.31;12916434;23;20032;-83
2021/12/27 07:45:30;;;;;;;29.73;16.65;;;;;;;-0.39;63.70;97054.94;12939874;23;20012;-83
2021/12/27 07:50:53;;;;;;;30.00;16.85;;;;;;;-0.25;63.31;97047.38;12916871;23;20023;-80
2021/12/27 07:56:15;;;;;;;29.85;17.08;;;;;;;-0.30;63.33;97043.47;12936900;23;20020;-82
2021/12/27 08:01:39;;;;;;;27.45;16.25;;;;;;;-0.17;63.00;97048.88;12890102;23;20027;-81
2021/12/27 08:07:04;;;;;;;30.08;15.98;;;;;;;-0.30;63.30;97046.22;12917732;23;20044;-82
2021/12/27 08:12:26;;;;;;;29.70;15.48;;;;;;;-0.33;63.67;97041.81;12916994;23;20028;-83
2021/12/27 08:17:51;;;;;;;27.35;14.90;;;;;;;-0.37;63.57;97036.69;12935972;23;20016;-83
2021/12/27 08:23:14;;;;;;;27.00;15.35;;;;;;;-0.35;63.56;97036.88;12917872;23;20016;-82
2021/12/27 08:28:39;;;;;;;27.52;14.75;;;;;;;-0.21;63.33;97036.78;12938121;23;20016;-83
2021/12/27 08:34:02;;;;;;;26.23;14.90;;;;;;;-0.17;62.92;97037.91;12916343;23;20023;-82
2021/12/27 08:39:24;;;;;;;27.58;15.45;;;;;;;-0.18;63.43;97044.69;12916140;23;20047;-83
2021/12/27 08:44:47;;;;;;;27.27;15.50;;;;;;;0.03;63.42;97044.63;12958057;23;20028;-83
2021/12/27 08:50:09;;;;;;;31.23;15.95;;;;;;;0.24;62.85;97037.03;12924278;23;20007;-84
2021/12/27 08:55:31;;;;;;;26.48;15.75;;;;;;;0.54;62.68;97044.66;12936921;23;20554;-81
2021/12/27 09:00:55;;;;;;;26.58;16.30;;;;;;;0.88;61.82;97029.94;12911293;23;20012;-83
2021/12/27 09:06:17;;;;;;;26.50;15.25;;;;;;;1.08;62.46;97042.06;12916698;23;20007;-84
2021/12/27 09:11:39;;;;;;;26.67;16.20;;;;;;;1.24;62.47;97038.03;12936848;23;20027;-83
2021/12/27 09:17:02;;;;;;;26.85;14.88;;;;;;;1.42;62.41;97042.44;12917000;23;20020;-83
2021/12/27 09:22:23;;;;;;;26.83;16.55;;;;;;;1.94;60.20;97037.44;12957229;23;20050;-83
2021/12/27 09:27:45;;;;;;;27.60;16.00;;;;;;;2.52;60.62;97041.13;12936599;23;20000;-83
2021/12/27 09:33:09;;;;;;;26.88;16.33;;;;;;;3.60;58.01;97032.91;12958857;23;20022;-83
2021/12/27 09:38:31;;;;;;;23.52;15.98;;;;;;;5.05;55.96;97020.22;12979446;23;20020;-82
2021/12/27 09:43:53;;;;;;;27.55;17.00;;;;;;;5.14;54.09;97019.53;12939821;23;20068;-82
2021/12/27 09:49:16;;;;;;;24.55;15.95;;;;;;;4.64;54.95;97008.78;12937849;23;20024;-82
2021/12/27 09:54:37;;;;;;;25.33;16.00;;;;;;;4.78;55.22;97001.59;12939431;22;20000;-82
2021/12/27 09:59:59;;;;;;;27.80;16.25;;;;;;;5.05;53.33;96995.31;12962212;22;20000;-81
2021/12/27 10:05:24;;;;;;;22.52;13.93;;;;;;;5.09;54.63;96990.81;12966681;22;20000;-82
2021/12/27 10:10:46;;;;;;;26.00;15.38;;;;;;;4.78;53.65;96976.69;12982282;22;20004;-82
2021/12/27 10:16:14;;;;;;;22.90;15.13;;;;;;;6.31;50.41;96969.34;12938139;22;20000;-80
2021/12/27 10:27:53;;;;;;;25.20;15.02;;;;;;;10.67;40.95;96968.84;12932046;22;20026;-83
2021/12/27 10:33:23;;;;;;;23.08;13.95;;;;;;;9.90;44.35;96962.44;12969362;23;20016;-82
2021/12/27 10:38:45;;;;;;;21.45;14.77;;;;;;;9.76;42.18;96975.56;12916755;23;20030;-81
2021/12/27 10:44:08;;;;;;;20.85;13.57;;;;;;;8.06;44.00;96972.09;12917555;23;20008;-85
2021/12/27 10:49:45;;;;;;;21.70;14.38;;;;;;;6.76;45.02;96957.88;12982952;22;20031;-85
2021/12/27 10:55:11;;;;;;;25.88;14.60;;;;;;;6.96;46.22;96953.72;12923914;22;20016;-86
2021/12/27 11:00:34;;;;;;;22.15;15.45;;;;;;;5.74;46.37;96945.09;12962861;22;20026;-84
2021/12/27 11:05:56;;;;;;;27.63;15.93;;;;;;;5.19;47.65;96935.50;12965134;22;20004;-86
2021/12/27 11:11:22;;;;;;;23.67;15.93;;;;;;;5.12;48.17;96934.34;12906048;22;20004;-85
2021/12/27 11:16:44;;;;;;;;;;;;;;;5.59;47.76;96920.44;12956155;23;20381;-79
2021/12/27 11:22:05;;;;;;;23.58;15.00;;;;;;;5.45;47.74;96909.81;12892965;23;19969;-80
2021/12/27 11:27:26;;;;;;;23.48;15.32;;;;;;;4.37;48.44;96909.28;12944711;22;20064;-83
2021/12/27 11:33:20;;;;;;;25.13;14.73;;;;;;;3.58;50.28;96905.81;12864032;22;20055;-83
2021/12/27 11:38:43;;;;;;;21.75;14.38;;;;;;;3.41;50.37;96904.50;12959074;23;20010;-87
2021/12/27 11:44:17;;;;;;;25.55;15.02;;;;;;;3.22;51.67;96906.31;12986520;23;20068;-86
2021/12/27 11:49:45;;;;;;;22.13;15.23;;;;;;;3.27;52.26;96905.34;12965777;23;20016;-86
2021/12/27 11:55:11;;;;;;;25.30;15.55;;;;;;;3.38;51.80;96888.34;13007721;22;20024;-87
2021/12/27 12:00:33;;;;;;;24.20;15.35;;;;;;;3.74;51.26;96885.72;12985915;22;20022;-85
2021/12/27 12:05:55;;;;;;;24.55;15.95;;;;;;;3.67;51.01;96877.56;12944490;22;20004;-84
2021/12/27 12:11:21;;;;;;;26.17;15.88;;;;;;;3.59;51.78;96871.38;12923723;22;20024;-83
2021/12/27 12:16:46;;;;;;;28.20;16.02;;;;;;;3.18;51.39;96865.34;12898721;22;20006;-85
2021/12/27 12:22:33;;;;;;;27.35;15.68;;;;;;;2.82;52.65;96857.59;12923664;22;20004;-86
2021/12/27 12:28:11;;;;;;;26.58;15.98;;;;;;;2.55;52.26;96851.91;12964741;22;20060;-84
2021/12/27 12:33:33;;;;;;;25.48;15.57;;;;;;;2.70;53.05;96851.06;12936628;22;20027;-85
2021/12/27 12:38:56;;;;;;;23.85;14.50;;;;;;;2.63;53.34;96847.09;12916267;22;20006;-86
2021/12/27 12:44:18;;;;;;;29.77;15.93;;;;;;;2.54;53.85;96834.66;12896872;23;20028;-86
2021/12/27 12:49:43;;;;;;;28.35;15.95;;;;;;;2.82;53.83;96849.31;12925016;22;20011;-86
2021/12/27 12:55:05;;;;;;;27.23;16.75;;;;;;;2.97;53.71;96857.44;12943366;22;20000;-85
2021/12/27 13:00:29;;;;;;;28.75;15.52;;;;;;;2.88;53.18;96863.59;12942845;23;20020;-87
2021/12/27 13:05:59;;;;;;;24.42;15.90;;;;;;;2.95;54.24;96873.09;12942540;22;20008;-86
2021/12/27 13:11:20;;;;;;;27.77;16.63;;;;;;;2.94;53.84;96866.84;12922172;23;20020;-85
2021/12/27 13:16:46;;;;;;;33.83;17.85;;;;;;;3.00;53.87;96864.59;12944048;22;20023;-84
2021/12/27 13:22:09;;;;;;;25.83;16.90;;;;;;;2.82;53.83;96863.84;12943246;22;20004;-81
2021/12/27 13:27:36;;;;;;;27.40;16.70;;;;;;;2.51;53.85;96862.59;12897351;22;20011;-86
2021/12/27 13:32:58;;;;;;;27.48;17.90;;;;;;;2.35;54.15;96864.72;12942366;22;20036;-85
2021/12/27 13:38:26;;;;;;;26.67;17.02;;;;;;;2.43;53.79;96862.66;12941668;22;20030;-86
2021/12/27 13:43:53;;;;;;;28.90;17.10;;;;;;;2.58;54.39;96864.56;12896159;22;20039;-84
2021/12/27 13:49:17;;;;;;;28.27;16.02;;;;;;;2.52;55.20;96847.53;12960960;22;20000;-81
2021/12/27 13:54:41;;;;;;;28.30;17.13;;;;;;;2.44;55.24;96858.59;12962088;23;20007;-84
2021/12/27 14:00:04;;;;;;;27.73;16.67;;;;;;;2.32;55.02;96852.09;12920911;23;20020;-84
2021/12/27 14:05:31;;;;;;;29.38;17.45;;;;;;;2.16;55.43;96845.19;12945480;23;20016;-86
2021/12/27 14:11:06;;;;;;;29.15;16.73;;;;;;;2.10;55.26;96841.91;12964061;22;20016;-85
2021/12/27 14:16:30;;;;;;;32.78;17.75;;;;;;;2.16;55.89;96834.19;12941324;22;20022;-84
2021/12/27 14:22:24;;;;;;;30.63;18.13;;;;;;;2.20;55.47;96835.25;12942722;23;20012;-83
2021/12/27 14:27:53;;;;;;;28.65;17.83;;;;;;;2.16;55.86;96842.44;12950727;23;20025;-86
2021/12/27 14:33:17;;;;;;;31.98;16.95;;;;;;;2.06;54.99;96841.59;12915090;23;20051;-85
2021/12/27 14:38:40;;;;;;;27.08;15.60;;;;;;;1.96;55.48;96853.19;12960203;22;20027;-85
2021/12/27 14:44:03;;;;;;;30.45;17.30;;;;;;;1.87;56.25;96851.03;12898525;22;20016;-85
2021/12/27 14:49:26;;;;;;;27.25;15.55;;;;;;;1.82;56.25;96857.47;12938997;23;20024;-84
2021/12/27 14:54:48;;;;;;;26.77;15.75;;;;;;;1.84;56.10;96865.94;12939217;23;20027;-86
2021/12/27 15:00:25;;;;;;;29.58;16.35;;;;;;;1.70;56.51;96856.44;12943157;23;20023;-84
2021/12/27 15:05:48;;;;;;;26.52;16.52;;;;;;;1.60;56.84;96855.56;12926081;23;20048;-81
2021/12/27 15:11:12;;;;;;;25.05;15.07;;;;;;;1.63;56.70;96862.69;12872374;23;20031;-79
2021/12/27 15:16:34;;;;;;;26.45;16.60;;;;;;;1.66;57.37;96859.56;12919678;23;20016;-80
2021/12/27 15:21:55;;;;;;;25.00;15.35;;;;;;;1.72;57.01;96873.09;12917962;23;20020;-80
2021/12/27 15:27:18;;;;;;;27.30;16.40;;;;;;;1.72;56.62;96848.34;12898624;23;20020;-81
2021/12/27 15:32:40;;;;;;;29.60;16.30;;;;;;;1.71;57.02;96842.09;12935179;23;20027;-81
2021/12/27 15:38:01;;;;;;;27.02;15.38;;;;;;;1.74;58.10;96843.03;12914452;23;20020;-83
2021/12/27 15:43:22;;;;;;;25.38;14.68;;;;;;;1.71;57.58;96836.59;12959526;22;20020;-83
2021/12/27 15:48:43;;;;;;;28.73;16.08;;;;;;;1.61;57.70;96837.75;12895966;23;20399;-78
2021/12/27 15:54:04;;;;;;;28.30;15.93;;;;;;;1.55;57.52;96831.75;12894043;23;20036;-80
2021/12/27 15:59:26;;;;;;;26.52;16.20;;;;;;;1.53;58.00;96848.06;12928444;23;20016;-80
2021/12/27 16:04:47;;;;;;;26.45;15.48;;;;;;;1.57;58.11;96826.41;12879878;23;20031;-84
2021/12/27 16:10:08;;;;;;;29.48;18.00;;;;;;;1.47;58.43;96833.78;12916745;23;20535;-83
2021/12/27 16:15:29;;;;;;;31.33;17.35;;;;;;;1.33;58.42;96841.50;12926642;23;20043;-77
2021/12/27 16:20:51;;;;;;;28.33;17.00;;;;;;;1.23;58.82;96833.09;12886588;23;20070;-80
2021/12/27 16:26:14;;;;;;;30.50;17.08;;;;;;;1.23;58.48;96821.38;12907499;23;20047;-79
2021/12/27 16:37:55;;;;;;;30.38;17.60;;;;;;;1.33;59.57;96825.00;12844817;22;20009;-82
2021/12/27 16:43:19;;;;;;;29.00;17.85;;;;;;;1.40;59.16;96822.25;12829420;22;20023;-83
2021/12/27 16:48:49;;;;;;;30.30;17.55;;;;;;;1.42;59.35;96818.94;12881164;23;20017;-86
2021/12/27 16:54:13;;;;;;;31.23;17.60;;;;;;;1.38;59.25;96815.84;12858986;23;20067;-79
2021/12/27 16:59:38;;;;;;;29.08;17.70;;;;;;;1.43;59.41;96829.38;12877612;23;20024;-79
2021/12/27 17:04:59;;;;;;;31.88;18.33;;;;;;;1.49;59.78;96855.97;12801864;23;20044;-78
2021/12/27 17:10:20;;;;;;;32.20;18.80;;;;;;;1.44;59.61;96846.59;12833112;23;20020;-81
2021/12/27 17:15:42;;;;;;;31.42;18.27;;;;;;;1.51;59.65;96850.63;12843812;23;20016;-78
2021/12/27 17:27:19;;;;;;;30.90;18.30;;;;;;;1.60;59.54;96828.03;12975565;22;20012;-81
2021/12/27 17:32:42;;;;;;;35.17;19.20;;;;;;;1.63;59.89;96832.41;12937926;23;20012;-80
2021/12/27 17:38:03;;;;;;;32.92;18.70;;;;;;;1.68;59.98;96826.00;12919186;23;20016;-81
2021/12/27 17:43:25;;;;;;;34.40;19.48;;;;;;;1.71;60.38;96830.38;12913386;23;20019;-81
2021/12/27 17:48:47;;;;;;;34.03;19.00;;;;;;;1.75;59.99;96835.50;12930150;23;20012;-81
2021/12/27 17:54:08;;;;;;;33.30;19.50;;;;;;;1.72;60.21;96829.09;12902536;23;20020;-79
2021/12/27 17:59:29;;;;;;;30.90;19.20;;;;;;;1.69;60.43;96830.22;12902965;23;20031;-80
2021/12/27 18:04:50;;;;;;;30.38;18.60;;;;;;;1.71;59.90;96836.59;12933400;23;20020;-80
2021/12/27 18:10:12;;;;;;;33.55;19.35;;;;;;;1.68;60.20;96843.22;12923699;23;20066;-81
2021/12/27 18:15:33;;;;;;;32.92;19.05;;;;;;;1.72;60.48;96849.06;12959481;23;20050;-81
2021/12/27 18:20:54;;;;;;;37.15;20.33;;;;;;;1.67;60.06;96841.03;12894789;23;20024;-80
2021/12/27 18:26:16;;;;;;;34.17;19.42;;;;;;;1.63;60.32;96854.44;12871834;23;20020;-80
2021/12/27 18:31:40;;;;;;;33.95;18.83;;;;;;;1.65;60.26;96857.38;12913427;23;20016;-80
2021/12/27 18:37:01;;;;;;;38.95;20.40;;;;;;;1.66;60.80;96840.31;12922367;23;20000;-84
2021/12/27 18:42:23;;;;;;;32.95;18.85;;;;;;;1.70;60.07;96854.41;12938943;23;20024;-84
2021/12/27 18:47:44;;;;;;;30.80;18.83;;;;;;;1.80;60.81;96853.81;12919437;23;20012;-83
2021/12/27 18:53:06;;;;;;;32.63;19.27;;;;;;;1.86;60.50;96859.84;12885471;23;20024;-80
2021/12/27 18:58:27;;;;;;;37.60;20.60;;;;;;;1.82;60.42;96868.47;12918127;23;20008;-83
2021/12/27 19:03:48;;;;;;;34.25;19.33;;;;;;;1.80;60.36;96867.59;12898281;23;20023;-80
2021/12/27 19:09:11;;;;;;;34.92;19.85;;;;;;;1.84;60.40;96876.19;12940420;22;20004;-82
2021/12/27 19:14:46;;;;;;;34.30;19.25;;;;;;;1.78;60.58;96879.16;12918451;22;20088;-84
2021/12/27 19:20:09;;;;;;;35.47;20.58;;;;;;;1.73;60.46;96858.78;12957648;23;20004;-83
2021/12/27 19:25:31;;;;;;;32.70;19.58;;;;;;;1.77;60.60;96861.19;12959946;22;20027;-81
2021/12/27 19:30:54;;;;;;;32.33;19.65;;;;;;;1.78;60.52;96851.63;12960523;23;20004;-81
2021/12/27 19:36:17;;;;;;;34.92;21.45;;;;;;;1.69;60.42;96849.47;12939134;22;20027;-83
2021/12/27 19:41:39;;;;;;;33.88;19.75;;;;;;;1.56;60.56;96847.69;12939308;23;20016;-81
2021/12/27 19:47:02;;;;;;;33.47;20.15;;;;;;;1.48;60.41;96852.47;12959761;22;20000;-83
2021/12/27 19:52:24;;;;;;;36.15;21.45;;;;;;;1.29;61.07;96858.41;12961925;23;20011;-85
2021/12/27 19:57:46;;;;;;;35.58;20.10;;;;;;;1.24;61.00;96875.81;12942485;22;20004;-83
2021/12/27 20:03:07;;;;;;;32.60;19.65;;;;;;;1.20;61.58;96867.22;12977781;23;20023;-83
2021/12/27 20:08:30;;;;;;;35.97;20.63;;;;;;;1.31;61.26;96888.09;12920975;22;20006;-82
2021/12/27 20:13:52;;;;;;;42.50;22.63;;;;;;;1.41;61.60;96878.72;12946352;23;20030;-80
2021/12/27 20:19:14;;;;;;;39.38;22.02;;;;;;;1.45;62.31;96878.34;12936743;23;20000;-81
2021/12/27 20:24:41;;;;;;;34.88;21.05;;;;;;;1.42;61.14;96877.41;12940364;22;20000;-81
2021/12/27 20:30:04;;;;;;;39.95;23.65;;;;;;;1.42;62.00;96871.19;12908813;22;20812;-83
2021/12/27 20:35:26;;;;;;;44.05;22.35;;;;;;;1.39;62.20;96877.81;12879412;23;20008;-81
2021/12/27 20:40:49;;;;;;;37.70;22.55;;;;;;;1.36;62.04;96865.91;12878768;23;20043;-84
2021/12/27 20:46:12;;;;;;;37.55;22.60;;;;;;;1.33;62.20;96863.50;12857712;23;20032;-86
2021/12/27 20:51:34;;;;;;;38.53;21.48;;;;;;;1.36;62.27;96868.66;12899932;22;20000;-80
2021/12/27 20:56:57;;;;;;;39.75;23.08;;;;;;;1.37;62.18;96855.63;12859243;22;20024;-83
2021/12/27 21:02:21;;;;;;;44.70;26.00;;;;;;;1.43;62.70;96856.16;12878012;22;20024;-80
2021/12/27 21:07:44;;;;;;;44.70;24.98;;;;;;;1.29;63.26;96858.41;12879197;22;20001;-84
2021/12/27 21:13:08;;;;;;;44.42;26.23;;;;;;;1.26;62.66;96847.78;12880493;22;20008;-84
2021/12/27 21:18:31;;;;;;;40.50;25.33;;;;;;;1.29;63.58;96852.91;12859304;22;20046;-84
2021/12/27 21:36:19;;;;;;;;;;;;;;;1.06;66.11;96868.69;12742223;22;19904;-82
2021/12/27 21:41:42;;;;;;;45.72;26.30;;;;;;;0.92;66.19;96872.94;12877863;22;19907;-80
2021/12/27 21:53:19;;;;;;;49.30;26.77;;;;;;;0.85;65.33;96877.13;12835296;22;20011;-82
2021/12/27 21:58:50;;;;;;;48.35;27.77;;;;;;;0.84;66.20;96876.41;12681150;23;20076;-85
2021/12/27 22:04:18;;;;;;;44.10;26.27;;;;;;;0.81;66.55;96877.50;12705071;23;20027;-85
2021/12/27 22:09:41;;;;;;;46.83;26.98;;;;;;;0.70;67.27;96875.13;12733479;23;20014;-81
2021/12/27 22:15:09;;;;;;;54.40;28.77;;;;;;;0.59;68.05;96852.78;12713295;23;20066;-81
2021/12/27 22:20:32;;;;;;;50.40;27.38;;;;;;;0.52;68.85;96841.25;12712559;23;20078;-84
2021/12/27 22:32:12;;;;;;;50.92;28.42;;;;;;;0.43;68.88;96846.56;12848985;23;20019;-80
2021/12/27 22:37:35;;;;;;;48.17;27.85;;;;;;;0.34;68.70;96858.06;12982585;22;20011;-82
2021/12/27 22:43:04;;;;;;;50.22;28.60;;;;;;;0.23;68.42;96851.66;12960945;23;20004;-83
2021/12/27 22:48:30;;;;;;;54.45;29.35;;;;;;;0.14;68.61;96846.69;12941176;23;20000;-84
2021/12/27 22:53:58;;;;;;;48.72;28.30;;;;;;;0.11;69.28;96858.03;12941106;22;20068;-85
2021/12/27 22:59:29;;;;;;;50.80;28.08;;;;;;;0.06;69.79;96886.38;12981965;23;20016;-85
2021/12/27 23:05:07;;;;;;;48.75;26.45;;;;;;;0.02;69.71;96866.81;12941172;23;20008;-83
2021/12/27 23:10:32;;;;;;;49.25;27.45;;;;;;;0.02;69.46;96859.31;12941804;22;20013;-82
2021/12/27 23:16:02;;;;;;;50.47;27.33;;;;;;;0.03;69.46;96863.50;12941832;23;20007;-84
2021/12/27 23:21:36;;;;;;;49.08;27.52;;;;;;;0.06;70.57;96862.41;12904553;23;20020;-82
2021/12/27 23:27:03;;;;;;;44.95;25.83;;;;;;;-0.04;71.21;96850.50;12923878;22;20064;-81
2021/12/27 23:32:41;;;;;;;43.15;25.02;;;;;;;-0.16;70.38;96836.38;12945391;23;20038;-83
2021/12/27 23:38:12;;;;;;;45.63;25.38;;;;;;;-0.19;70.61;96842.22;12926198;22;20046;-84
2021/12/27 23:50:05;;;;;;;49.10;26.83;;;;;;;-0.25;71.25;96833.44;12846196;22;20045;-80
2021/12/27 23:55:35;;;;;;;43.40;24.52;;;;;;;-0.21;71.42;96836.53;12863159;23;20016;-82
